sensor_id;sensor_type;location;lat;lon;timestamp;pressure;altitude;pressure_sealevel;temperature;humidity
79129;BME280;68529;43.286;23.360;2024-02-15T00:02:08;99806.16;;;8.47;52.83
79129;BME280;68529;43.286;23.360;2024-02-15T00:04:34;99813.03;;;8.54;53.24
79129;BME280;68529;43.286;23.360;2024-02-15T00:06:59;99814.72;;;8.55;52.79
79129;BME280;68529;43.286;23.360;2024-02-15T00:09:25;99813.13;;;8.48;52.94
79129;BME280;68529;43.286;23.360;2024-02-15T00:11:50;99811.28;;;8.53;52.96
79129;BME280;68529;43.286;23.360;2024-02-15T00:14:16;99809.81;;;8.35;53.02
79129;BME280;68529;43.286;23.360;2024-02-15T00:16:42;99809.03;;;8.30;53.12
79129;BME280;68529;43.286;23.360;2024-02-15T00:19:07;99813.41;;;8.27;53.11
79129;BME280;68529;43.286;23.360;2024-02-15T00:21:33;99816.03;;;8.27;53.16
79129;BME280;68529;43.286;23.360;2024-02-15T00:23:58;99817.81;;;8.28;53.42
79129;BME280;68529;43.286;23.360;2024-02-15T00:26:25;99811.69;;;8.27;53.21
79129;BME280;68529;43.286;23.360;2024-02-15T00:28:51;99812.59;;;8.26;53.70
79129;BME280;68529;43.286;23.360;2024-02-15T00:31:17;99802.94;;;8.30;53.69
79129;BME280;68529;43.286;23.360;2024-02-15T00:33:43;99810.94;;;8.19;53.57
79129;BME280;68529;43.286;23.360;2024-02-15T00:36:10;99813.75;;;8.05;53.57
79129;BME280;68529;43.286;23.360;2024-02-15T00:38:35;99811.16;;;8.05;53.96
79129;BME280;68529;43.286;23.360;2024-02-15T00:41:00;99812.16;;;7.98;53.90
79129;BME280;68529;43.286;23.360;2024-02-15T00:43:26;99820.19;;;7.83;54.66
79129;BME280;68529;43.286;23.360;2024-02-15T00:45:52;99814.09;;;7.84;54.77
79129;BME280;68529;43.286;23.360;2024-02-15T00:48:18;99814.03;;;7.87;54.61
79129;BME280;68529;43.286;23.360;2024-02-15T00:50:43;99810.38;;;8.00;54.70
79129;BME280;68529;43.286;23.360;2024-02-15T00:53:08;99812.06;;;8.03;54.40
79129;BME280;68529;43.286;23.360;2024-02-15T00:55:34;99807.56;;;8.11;54.51
79129;BME280;68529;43.286;23.360;2024-02-15T00:57:59;99819.66;;;8.18;54.72
79129;BME280;68529;43.286;23.360;2024-02-15T01:00:24;99818.88;;;8.13;54.74
79129;BME280;68529;43.286;23.360;2024-02-15T01:02:51;99809.38;;;8.09;54.17
79129;BME280;68529;43.286;23.360;2024-02-15T01:05:18;99817.13;;;8.13;54.48
79129;BME280;68529;43.286;23.360;2024-02-15T01:07:44;99815.19;;;8.26;54.06
79129;BME280;68529;43.286;23.360;2024-02-15T01:10:09;99814.44;;;8.18;54.61
79129;BME280;68529;43.286;23.360;2024-02-15T01:12:34;99803.91;;;8.23;54.20
79129;BME280;68529;43.286;23.360;2024-02-15T01:15:00;99813.59;;;8.17;54.64
79129;BME280;68529;43.286;23.360;2024-02-15T01:17:26;99810.81;;;8.28;54.59
79129;BME280;68529;43.286;23.360;2024-02-15T01:19:51;99815.06;;;8.37;54.02
79129;BME280;68529;43.286;23.360;2024-02-15T01:22:18;99812.38;;;8.40;53.61
79129;BME280;68529;43.286;23.360;2024-02-15T01:24:43;99807.84;;;8.51;53.82
79129;BME280;68529;43.286;23.360;2024-02-15T01:27:09;99811.22;;;8.56;53.74
79129;BME280;68529;43.286;23.360;2024-02-15T01:29:35;99807.63;;;8.61;53.48
79129;BME280;68529;43.286;23.360;2024-02-15T01:32:01;99811.81;;;8.71;53.67
79129;BME280;68529;43.286;23.360;2024-02-15T01:34:27;99811.03;;;8.68;53.57
79129;BME280;68529;43.286;23.360;2024-02-15T01:36:53;99806.78;;;8.61;53.02
79129;BME280;68529;43.286;23.360;2024-02-15T01:39:18;99817.28;;;8.58;53.45
79129;BME280;68529;43.286;23.360;2024-02-15T01:41:50;99816.41;;;8.59;53.28
79129;BME280;68529;43.286;23.360;2024-02-15T01:44:17;99813.06;;;8.51;53.40
79129;BME280;68529;43.286;23.360;2024-02-15T01:46:43;99822.72;;;8.47;53.56
79129;BME280;68529;43.286;23.360;2024-02-15T01:49:11;99817.56;;;8.43;53.97
79129;BME280;68529;43.286;23.360;2024-02-15T01:51:36;99825.66;;;8.28;53.63
79129;BME280;68529;43.286;23.360;2024-02-15T01:54:03;99818.78;;;8.19;54.32
79129;BME280;68529;43.286;23.360;2024-02-15T01:56:29;99821.47;;;8.14;54.37
79129;BME280;68529;43.286;23.360;2024-02-15T01:58:56;99812.81;;;8.11;54.58
79129;BME280;68529;43.286;23.360;2024-02-15T02:01:22;99819.84;;;8.07;54.76
79129;BME280;68529;43.286;23.360;2024-02-15T02:03:48;99818.09;;;8.08;54.65
79129;BME280;68529;43.286;23.360;2024-02-15T02:06:13;99825.97;;;8.06;54.85
79129;BME280;68529;43.286;23.360;2024-02-15T02:08:39;99828.69;;;7.99;54.83
79129;BME280;68529;43.286;23.360;2024-02-15T02:11:05;99820.09;;;7.91;55.14
79129;BME280;68529;43.286;23.360;2024-02-15T02:13:30;99825.44;;;7.83;54.97
79129;BME280;68529;43.286;23.360;2024-02-15T02:15:56;99821.22;;;7.73;55.07
79129;BME280;68529;43.286;23.360;2024-02-15T02:18:22;99822.09;;;7.71;55.19
79129;BME280;68529;43.286;23.360;2024-02-15T02:20:49;99820.63;;;7.53;55.74
79129;BME280;68529;43.286;23.360;2024-02-15T02:23:16;99819.88;;;7.42;55.46
79129;BME280;68529;43.286;23.360;2024-02-15T02:25:44;99818.03;;;7.50;55.69
79129;BME280;68529;43.286;23.360;2024-02-15T02:28:10;99827.53;;;7.57;55.31
79129;BME280;68529;43.286;23.360;2024-02-15T02:30:36;99831.06;;;7.53;55.84
79129;BME280;68529;43.286;23.360;2024-02-15T02:33:01;99828.38;;;7.59;55.46
79129;BME280;68529;43.286;23.360;2024-02-15T02:35:27;99830.91;;;7.67;55.50
79129;BME280;68529;43.286;23.360;2024-02-15T02:37:56;99834.53;;;7.56;55.23
79129;BME280;68529;43.286;23.360;2024-02-15T02:40:21;99837.06;;;7.59;55.47
79129;BME280;68529;43.286;23.360;2024-02-15T02:42:52;99837.06;;;7.61;55.44
79129;BME280;68529;43.286;23.360;2024-02-15T02:45:19;99828.31;;;7.63;55.29
79129;BME280;68529;43.286;23.360;2024-02-15T02:47:46;99838.88;;;7.54;55.22
79129;BME280;68529;43.286;23.360;2024-02-15T02:50:13;99834.63;;;7.47;55.51
79129;BME280;68529;43.286;23.360;2024-02-15T02:52:39;99835.78;;;7.25;55.64
79129;BME280;68529;43.286;23.360;2024-02-15T02:55:05;99839.31;;;7.18;55.89
79129;BME280;68529;43.286;23.360;2024-02-15T02:57:34;99837.63;;;7.17;55.82
79129;BME280;68529;43.286;23.360;2024-02-15T03:00:02;99834.09;;;7.18;56.02
79129;BME280;68529;43.286;23.360;2024-02-15T03:02:33;99840.97;;;7.27;55.65
79129;BME280;68529;43.286;23.360;2024-02-15T03:05:02;99831.31;;;7.33;55.53
79129;BME280;68529;43.286;23.360;2024-02-15T03:07:28;99845.34;;;7.25;55.36
79129;BME280;68529;43.286;23.360;2024-02-15T03:09:53;99840.66;;;6.75;56.54
79129;BME280;68529;43.286;23.360;2024-02-15T03:12:18;99846.22;;;6.35;57.19
79129;BME280;68529;43.286;23.360;2024-02-15T03:14:44;99852.13;;;6.59;57.42
79129;BME280;68529;43.286;23.360;2024-02-15T03:17:09;99848.47;;;6.76;57.45
79129;BME280;68529;43.286;23.360;2024-02-15T03:19:34;99853.56;;;6.91;56.85
79129;BME280;68529;43.286;23.360;2024-02-15T03:22:00;99850.09;;;6.89;56.53
79129;BME280;68529;43.286;23.360;2024-02-15T03:24:25;99854.44;;;6.87;56.83
79129;BME280;68529;43.286;23.360;2024-02-15T03:26:50;99858.75;;;6.94;56.49
79129;BME280;68529;43.286;23.360;2024-02-15T03:29:17;99853.53;;;6.94;56.55
79129;BME280;68529;43.286;23.360;2024-02-15T03:31:45;99861.41;;;6.88;56.67
79129;BME280;68529;43.286;23.360;2024-02-15T03:34:10;99859.72;;;6.81;56.91
79129;BME280;68529;43.286;23.360;2024-02-15T03:36:36;99866.00;;;6.64;57.19
79129;BME280;68529;43.286;23.360;2024-02-15T03:39:02;99866.34;;;6.21;57.98
79129;BME280;68529;43.286;23.360;2024-02-15T03:41:28;99856.66;;;6.34;57.78
79129;BME280;68529;43.286;23.360;2024-02-15T03:43:58;99868.06;;;6.24;58.13
79129;BME280;68529;43.286;23.360;2024-02-15T03:46:25;99866.31;;;6.23;57.76
79129;BME280;68529;43.286;23.360;2024-02-15T03:48:51;99869.72;;;6.31;58.13
79129;BME280;68529;43.286;23.360;2024-02-15T03:51:19;99863.56;;;6.42;57.74
79129;BME280;68529;43.286;23.360;2024-02-15T03:53:46;99861.06;;;6.26;57.78
79129;BME280;68529;43.286;23.360;2024-02-15T03:56:12;99867.34;;;5.98;58.46
79129;BME280;68529;43.286;23.360;2024-02-15T03:58:38;99867.50;;;5.61;59.06
79129;BME280;68529;43.286;23.360;2024-02-15T04:01:04;99861.31;;;5.90;58.87
79129;BME280;68529;43.286;23.360;2024-02-15T04:03:35;99863.00;;;6.03;58.33
79129;BME280;68529;43.286;23.360;2024-02-15T04:06:01;99874.38;;;5.79;58.55
79129;BME280;68529;43.286;23.360;2024-02-15T04:08:27;99876.13;;;5.75;58.70
79129;BME280;68529;43.286;23.360;2024-02-15T04:10:52;99878.69;;;5.91;58.46
79129;BME280;68529;43.286;23.360;2024-02-15T04:13:18;99880.38;;;5.98;57.74
79129;BME280;68529;43.286;23.360;2024-02-15T04:15:44;99871.78;;;5.77;58.37
79129;BME280;68529;43.286;23.360;2024-02-15T04:18:12;99876.97;;;5.88;58.07
79129;BME280;68529;43.286;23.360;2024-02-15T04:20:39;99872.56;;;5.96;57.94
79129;BME280;68529;43.286;23.360;2024-02-15T04:23:10;99876.97;;;5.82;58.05
79129;BME280;68529;43.286;23.360;2024-02-15T04:25:35;99872.56;;;5.96;57.77
79129;BME280;68529;43.286;23.360;2024-02-15T04:28:01;99872.69;;;5.75;57.86
79129;BME280;68529;43.286;23.360;2024-02-15T04:30:29;99883.19;;;5.55;58.14
79129;BME280;68529;43.286;23.360;2024-02-15T04:32:55;99878.78;;;5.69;58.07
79129;BME280;68529;43.286;23.360;2024-02-15T04:35:20;99892.63;;;5.76;57.51
79129;BME280;68529;43.286;23.360;2024-02-15T04:37:46;99890.00;;;5.91;57.52
79129;BME280;68529;43.286;23.360;2024-02-15T04:40:12;99887.34;;;5.99;57.06
79129;BME280;68529;43.286;23.360;2024-02-15T04:42:39;99889.09;;;5.95;57.12
79129;BME280;68529;43.286;23.360;2024-02-15T04:45:05;99897.81;;;5.86;57.60
79129;BME280;68529;43.286;23.360;2024-02-15T04:47:33;99902.13;;;5.97;57.24
79129;BME280;68529;43.286;23.360;2024-02-15T04:49:59;99890.91;;;5.85;57.51
79129;BME280;68529;43.286;23.360;2024-02-15T04:52:25;99901.31;;;5.89;56.97
79129;BME280;68529;43.286;23.360;2024-02-15T04:54:51;99900.44;;;5.80;57.29
79129;BME280;68529;43.286;23.360;2024-02-15T04:57:16;99905.72;;;5.68;57.11
79129;BME280;68529;43.286;23.360;2024-02-15T04:59:42;99908.34;;;5.62;57.23
79129;BME280;68529;43.286;23.360;2024-02-15T05:02:12;99903.97;;;5.61;57.26
79129;BME280;68529;43.286;23.360;2024-02-15T05:04:38;99910.00;;;5.72;57.52
79129;BME280;68529;43.286;23.360;2024-02-15T05:07:03;99914.34;;;5.78;57.28
79129;BME280;68529;43.286;23.360;2024-02-15T05:09:29;99917.81;;;5.91;57.59
79129;BME280;68529;43.286;23.360;2024-02-15T05:11:56;99921.31;;;5.76;56.77
79129;BME280;68529;43.286;23.360;2024-02-15T05:14:22;99917.91;;;5.57;57.27
79129;BME280;68529;43.286;23.360;2024-02-15T05:16:49;99921.38;;;5.58;57.30
79129;BME280;68529;43.286;23.360;2024-02-15T05:19:16;99911.78;;;5.67;57.35
79129;BME280;68529;43.286;23.360;2024-02-15T05:21:42;99909.22;;;5.63;56.80
79129;BME280;68529;43.286;23.360;2024-02-15T05:24:14;99910.09;;;5.60;57.57
79129;BME280;68529;43.286;23.360;2024-02-15T05:26:44;99911.84;;;5.58;57.30
79129;BME280;68529;43.286;23.360;2024-02-15T05:29:12;99920.63;;;5.24;57.91
79129;BME280;68529;43.286;23.360;2024-02-15T05:31:38;99924.06;;;5.41;57.79
79129;BME280;68529;43.286;23.360;2024-02-15T05:34:07;99927.47;;;5.51;57.35
79129;BME280;68529;43.286;23.360;2024-02-15T05:36:33;99934.50;;;5.14;57.59
79129;BME280;68529;43.286;23.360;2024-02-15T05:38:59;99933.63;;;5.27;57.67
79129;BME280;68529;43.286;23.360;2024-02-15T05:41:25;99939.63;;;5.47;57.34
79129;BME280;68529;43.286;23.360;2024-02-15T05:43:50;99936.22;;;5.19;57.21
79129;BME280;68529;43.286;23.360;2024-02-15T05:46:19;99938.91;;;4.97;57.79
79129;BME280;68529;43.286;23.360;2024-02-15T05:48:48;99938.00;;;5.07;57.82
79129;BME280;68529;43.286;23.360;2024-02-15T05:51:14;99950.19;;;4.72;58.25
79129;BME280;68529;43.286;23.360;2024-02-15T05:53:40;99951.91;;;4.79;58.56
79129;BME280;68529;43.286;23.360;2024-02-15T05:56:07;99958.84;;;5.10;58.72
79129;BME280;68529;43.286;23.360;2024-02-15T05:58:34;99965.72;;;5.34;57.71
79129;BME280;68529;43.286;23.360;2024-02-15T06:01:00;99957.88;;;5.55;57.12
79129;BME280;68529;43.286;23.360;2024-02-15T06:03:32;99966.63;;;5.23;57.45
79129;BME280;68529;43.286;23.360;2024-02-15T06:06:02;99962.25;;;5.44;57.62
79129;BME280;68529;43.286;23.360;2024-02-15T06:08:32;99963.13;;;5.34;57.59
79129;BME280;68529;43.286;23.360;2024-02-15T06:10:58;99970.91;;;5.47;57.42
79129;BME280;68529;43.286;23.360;2024-02-15T06:13:23;99968.31;;;5.52;57.30
79129;BME280;68529;43.286;23.360;2024-02-15T06:15:50;99982.16;;;5.75;57.24
79129;BME280;68529;43.286;23.360;2024-02-15T06:18:19;99979.38;;;6.14;56.15
79129;BME280;68529;43.286;23.360;2024-02-15T06:20:47;99981.09;;;6.21;56.35
79129;BME280;68529;43.286;23.360;2024-02-15T06:23:16;99982.84;;;6.21;56.38
79129;BME280;68529;43.286;23.360;2024-02-15T06:25:41;99990.53;;;6.47;56.01
79129;BME280;68529;43.286;23.360;2024-02-15T06:28:07;99982.56;;;6.69;54.96
79129;BME280;68529;43.286;23.360;2024-02-15T06:30:52;99992.28;;;6.40;55.44
79129;BME280;68529;43.286;23.360;2024-02-15T06:33:36;99994.09;;;6.33;55.43
79129;BME280;68529;43.286;23.360;2024-02-15T06:36:20;99991.38;;;6.53;55.43
79129;BME280;68529;43.286;23.360;2024-02-15T06:39:04;99997.25;;;6.79;54.68
79129;BME280;68529;43.286;23.360;2024-02-15T06:41:48;99997.19;;;6.87;54.95
79129;BME280;68529;43.286;23.360;2024-02-15T06:44:13;99999.94;;;6.67;54.92
79129;BME280;68529;43.286;23.360;2024-02-15T06:46:39;100005.25;;;6.58;55.06
79129;BME280;68529;43.286;23.360;2024-02-15T06:49:04;99999.22;;;6.45;54.99
79129;BME280;68529;43.286;23.360;2024-02-15T06:51:30;100001.00;;;6.42;55.37
79129;BME280;68529;43.286;23.360;2024-02-15T06:53:55;100007.06;;;6.42;55.69
79129;BME280;68529;43.286;23.360;2024-02-15T06:56:21;100001.84;;;6.47;55.34
79129;BME280;68529;43.286;23.360;2024-02-15T06:58:47;100001.59;;;6.79;54.91
79129;BME280;68529;43.286;23.360;2024-02-15T07:01:13;100002.16;;;7.19;54.29
79129;BME280;68529;43.286;23.360;2024-02-15T07:03:41;99997.72;;;7.30;54.31
79129;BME280;68529;43.286;23.360;2024-02-15T07:06:09;99992.88;;;7.79;53.06
79129;BME280;68529;43.286;23.360;2024-02-15T07:08:35;99994.22;;;8.11;52.84
79129;BME280;68529;43.286;23.360;2024-02-15T07:11:00;99994.44;;;8.62;52.34
79129;BME280;68529;43.286;23.360;2024-02-15T07:13:27;99989.31;;;9.09;51.63
79129;BME280;68529;43.286;23.360;2024-02-15T07:15:53;99981.84;;;9.35;50.78
79129;BME280;68529;43.286;23.360;2024-02-15T07:18:18;99990.22;;;9.07;50.57
79129;BME280;68529;43.286;23.360;2024-02-15T07:20:47;99987.22;;;9.29;50.56
79129;BME280;68529;43.286;23.360;2024-02-15T07:23:13;99979.84;;;9.50;49.49
79129;BME280;68529;43.286;23.360;2024-02-15T07:25:38;99987.28;;;9.74;49.40
79129;BME280;68529;43.286;23.360;2024-02-15T07:28:04;99987.63;;;10.00;48.81
79129;BME280;68529;43.286;23.360;2024-02-15T07:30:30;99972.94;;;10.34;47.70
79129;BME280;68529;43.286;23.360;2024-02-15T07:32:56;99973.50;;;10.85;47.45
79129;BME280;68529;43.286;23.360;2024-02-15T07:35:22;99965.97;;;11.07;45.54
79129;BME280;68529;43.286;23.360;2024-02-15T07:37:53;99969.94;;;10.88;43.25
79129;BME280;68529;43.286;23.360;2024-02-15T07:40:21;99963.00;;;10.84;42.69
79129;BME280;68529;43.286;23.360;2024-02-15T07:42:48;99959.44;;;10.88;42.85
79129;BME280;68529;43.286;23.360;2024-02-15T07:45:13;99957.78;;;11.18;42.28
79129;BME280;68529;43.286;23.360;2024-02-15T07:47:39;99959.03;;;11.03;41.20
79129;BME280;68529;43.286;23.360;2024-02-15T07:50:04;99958.34;;;10.95;41.15
79129;BME280;68529;43.286;23.360;2024-02-15T07:52:30;99950.38;;;11.33;41.86
79129;BME280;68529;43.286;23.360;2024-02-15T07:54:56;99958.19;;;11.68;41.86
79129;BME280;68529;43.286;23.360;2024-02-15T07:57:21;99950.97;;;11.77;40.77
79129;BME280;68529;43.286;23.360;2024-02-15T07:59:48;99951.88;;;12.06;41.71
79129;BME280;68529;43.286;23.360;2024-02-15T08:02:14;99946.78;;;12.30;41.22
79129;BME280;68529;43.286;23.360;2024-02-15T08:04:43;99940.72;;;12.55;40.49
79129;BME280;68529;43.286;23.360;2024-02-15T08:07:09;99938.66;;;12.65;41.06
79129;BME280;68529;43.286;23.360;2024-02-15T08:09:37;99944.56;;;12.99;41.39
79129;BME280;68529;43.286;23.360;2024-02-15T08:12:02;99940.06;;;13.29;40.62
79129;BME280;68529;43.286;23.360;2024-02-15T08:14:28;99937.56;;;13.51;40.48
79129;BME280;68529;43.286;23.360;2024-02-15T08:16:54;99941.09;;;13.74;39.98
79129;BME280;68529;43.286;23.360;2024-02-15T08:19:21;99937.25;;;13.83;39.57
79129;BME280;68529;43.286;23.360;2024-02-15T08:21:48;99937.88;;;14.13;39.56
79129;BME280;68529;43.286;23.360;2024-02-15T08:24:16;99931.84;;;14.34;38.50
79129;BME280;68529;43.286;23.360;2024-02-15T08:26:42;99931.47;;;14.43;38.76
79129;BME280;68529;43.286;23.360;2024-02-15T08:29:08;99936.28;;;14.55;38.99
79129;BME280;68529;43.286;23.360;2024-02-15T08:31:34;99934.19;;;14.63;37.78
79129;BME280;68529;43.286;23.360;2024-02-15T08:34:03;99927.66;;;14.72;37.27
79129;BME280;68529;43.286;23.360;2024-02-15T08:36:35;99932.53;;;14.82;37.73
79129;BME280;68529;43.286;23.360;2024-02-15T08:39:00;99932.97;;;14.93;37.64
79129;BME280;68529;43.286;23.360;2024-02-15T08:41:26;99932.63;;;15.01;37.51
79129;BME280;68529;43.286;23.360;2024-02-15T08:43:53;99927.66;;;14.93;36.51
79129;BME280;68529;43.286;23.360;2024-02-15T08:46:18;99923.47;;;15.09;36.15
79129;BME280;68529;43.286;23.360;2024-02-15T08:48:45;99931.72;;;15.22;36.44
79129;BME280;68529;43.286;23.360;2024-02-15T08:51:12;99928.03;;;15.26;36.50
79129;BME280;68529;43.286;23.360;2024-02-15T08:53:37;99929.56;;;15.32;36.42
79129;BME280;68529;43.286;23.360;2024-02-15T08:56:04;99927.25;;;15.44;35.62
79129;BME280;68529;43.286;23.360;2024-02-15T08:58:29;99928.41;;;15.59;34.28
79129;BME280;68529;43.286;23.360;2024-02-15T09:00:58;99919.81;;;15.54;35.51
79129;BME280;68529;43.286;23.360;2024-02-15T09:03:23;99934.09;;;15.70;35.93
79129;BME280;68529;43.286;23.360;2024-02-15T09:05:49;99938.91;;;15.81;35.27
79129;BME280;68529;43.286;23.360;2024-02-15T09:08:14;99936.34;;;15.79;33.89
79129;BME280;68529;43.286;23.360;2024-02-15T09:10:41;99924.22;;;15.53;33.91
79129;BME280;68529;43.286;23.360;2024-02-15T09:13:08;99932.56;;;15.64;33.92
79129;BME280;68529;43.286;23.360;2024-02-15T09:15:33;99930.69;;;15.66;34.44
79129;BME280;68529;43.286;23.360;2024-02-15T09:17:58;99929.31;;;15.78;34.32
79129;BME280;68529;43.286;23.360;2024-02-15T09:20:24;99929.75;;;15.88;34.13
79129;BME280;68529;43.286;23.360;2024-02-15T09:22:54;99924.59;;;15.85;34.18
79129;BME280;68529;43.286;23.360;2024-02-15T09:25:20;99924.38;;;15.89;34.63
79129;BME280;68529;43.286;23.360;2024-02-15T09:27:49;99924.34;;;16.28;34.97
79129;BME280;68529;43.286;23.360;2024-02-15T09:30:15;99924.22;;;16.50;34.33
79129;BME280;68529;43.286;23.360;2024-02-15T09:32:42;99925.13;;;16.67;34.58
79129;BME280;68529;43.286;23.360;2024-02-15T09:35:09;99925.59;;;16.94;34.10
79129;BME280;68529;43.286;23.360;2024-02-15T09:37:35;99918.56;;;16.93;33.51
79129;BME280;68529;43.286;23.360;2024-02-15T09:40:01;99919.28;;;16.97;33.83
79129;BME280;68529;43.286;23.360;2024-02-15T09:42:31;99916.00;;;17.09;33.14
79129;BME280;68529;43.286;23.360;2024-02-15T09:44:59;99916.72;;;17.29;33.29
79129;BME280;68529;43.286;23.360;2024-02-15T09:47:26;99916.25;;;17.38;32.27
79129;BME280;68529;43.286;23.360;2024-02-15T09:49:58;99913.19;;;17.46;32.19
79129;BME280;68529;43.286;23.360;2024-02-15T09:52:24;99915.16;;;17.60;32.76
79129;BME280;68529;43.286;23.360;2024-02-15T09:54:50;99904.53;;;17.60;32.12
79129;BME280;68529;43.286;23.360;2024-02-15T09:57:17;99906.31;;;17.59;31.14
79129;BME280;68529;43.286;23.360;2024-02-15T09:59:43;99912.78;;;17.36;30.70
79129;BME280;68529;43.286;23.360;2024-02-15T10:02:10;99903.03;;;16.67;30.70
79129;BME280;68529;43.286;23.360;2024-02-15T10:04:37;99896.81;;;16.68;32.15
79129;BME280;68529;43.286;23.360;2024-02-15T10:07:03;99894.84;;;17.07;33.26
79129;BME280;68529;43.286;23.360;2024-02-15T10:09:29;99892.66;;;17.50;33.05
79129;BME280;68529;43.286;23.360;2024-02-15T10:11:56;99888.50;;;17.94;32.64
79129;BME280;68529;43.286;23.360;2024-02-15T10:14:25;99872.25;;;18.00;32.26
79129;BME280;68529;43.286;23.360;2024-02-15T10:16:52;99878.44;;;18.16;31.17
79129;BME280;68529;43.286;23.360;2024-02-15T10:19:19;99873.97;;;18.32;32.00
79129;BME280;68529;43.286;23.360;2024-02-15T10:21:51;99874.44;;;18.56;30.73
79129;BME280;68529;43.286;23.360;2024-02-15T10:24:18;99871.78;;;18.56;30.38
79129;BME280;68529;43.286;23.360;2024-02-15T10:26:48;99867.91;;;18.62;29.16
79129;BME280;68529;43.286;23.360;2024-02-15T10:29:13;99864.09;;;18.34;29.96
79129;BME280;68529;43.286;23.360;2024-02-15T10:31:52;99857.16;;;18.47;30.38
79129;BME280;68529;43.286;23.360;2024-02-15T10:34:18;99859.56;;;18.68;31.17
79129;BME280;68529;43.286;23.360;2024-02-15T10:36:46;99851.94;;;18.91;31.20
79129;BME280;68529;43.286;23.360;2024-02-15T10:39:15;99851.16;;;19.19;30.53
79129;BME280;68529;43.286;23.360;2024-02-15T10:41:50;99852.53;;;19.26;29.84
79129;BME280;68529;43.286;23.360;2024-02-15T10:44:20;99853.75;;;19.35;29.23
79129;BME280;68529;43.286;23.360;2024-02-15T10:46:48;99841.09;;;19.24;27.63
79129;BME280;68529;43.286;23.360;2024-02-15T10:49:20;99842.25;;;19.20;28.06
79129;BME280;68529;43.286;23.360;2024-02-15T10:51:59;99841.44;;;19.18;29.13
79129;BME280;68529;43.286;23.360;2024-02-15T10:54:52;99838.41;;;19.10;29.87
79129;BME280;68529;43.286;23.360;2024-02-15T10:57:25;99836.41;;;19.13;28.84
79129;BME280;68529;43.286;23.360;2024-02-15T10:59:55;99838.53;;;18.93;29.78
79129;BME280;68529;43.286;23.360;2024-02-15T11:04:56;99831.25;;;19.10;28.91
79129;BME280;68529;43.286;23.360;2024-02-15T11:07:27;99834.91;;;19.38;29.60
79129;BME280;68529;43.286;23.360;2024-02-15T11:09:56;99831.84;;;19.45;27.72
79129;BME280;68529;43.286;23.360;2024-02-15T11:12:23;99827.47;;;19.44;28.43
79129;BME280;68529;43.286;23.360;2024-02-15T11:14:49;99819.28;;;19.47;28.66
79129;BME280;68529;43.286;23.360;2024-02-15T11:17:55;99831.84;;;19.59;29.32
79129;BME280;68529;43.286;23.360;2024-02-15T11:23:01;99819.09;;;19.64;28.54
79129;BME280;68529;43.286;23.360;2024-02-15T11:30:50;99814.00;;;20.02;27.26
79129;BME280;68529;43.286;23.360;2024-02-15T11:36:07;99815.25;;;19.54;26.99
79129;BME280;68529;43.286;23.360;2024-02-15T11:38:37;99809.69;;;19.29;26.60
79129;BME280;68529;43.286;23.360;2024-02-15T11:41:08;99808.72;;;19.16;27.24
79129;BME280;68529;43.286;23.360;2024-02-15T11:46:20;99811.25;;;19.33;27.94
79129;BME280;68529;43.286;23.360;2024-02-15T11:48:46;99807.09;;;19.71;28.58
79129;BME280;68529;43.286;23.360;2024-02-15T11:51:35;99806.50;;;19.81;27.98
79129;BME280;68529;43.286;23.360;2024-02-15T11:54:08;99798.13;;;19.87;27.05
79129;BME280;68529;43.286;23.360;2024-02-15T11:56:56;99807.94;;;19.44;27.76
79129;BME280;68529;43.286;23.360;2024-02-15T11:59:41;99804.59;;;19.68;28.53
79129;BME280;68529;43.286;23.360;2024-02-15T12:02:37;99796.72;;;19.81;27.12
79129;BME280;68529;43.286;23.360;2024-02-15T12:05:21;99801.50;;;19.62;27.54
79129;BME280;68529;43.286;23.360;2024-02-15T12:08:05;99791.44;;;19.80;27.99
79129;BME280;68529;43.286;23.360;2024-02-15T12:11:01;99781.94;;;19.90;27.71
79129;BME280;68529;43.286;23.360;2024-02-15T12:13:52;99786.53;;;19.45;27.95
79129;BME280;68529;43.286;23.360;2024-02-15T12:16:36;99791.88;;;19.59;28.30
79129;BME280;68529;43.286;23.360;2024-02-15T12:19:20;99789.94;;;19.75;28.70
79129;BME280;68529;43.286;23.360;2024-02-15T12:21:47;99788.31;;;19.87;27.50
79129;BME280;68529;43.286;23.360;2024-02-15T12:24:14;99782.41;;;19.82;27.79
79129;BME280;68529;43.286;23.360;2024-02-15T12:26:40;99787.97;;;19.65;28.18
79129;BME280;68529;43.286;23.360;2024-02-15T12:29:07;99775.09;;;19.71;27.88
79129;BME280;68529;43.286;23.360;2024-02-15T12:31:35;99770.72;;;19.85;27.93
79129;BME280;68529;43.286;23.360;2024-02-15T12:34:04;99762.81;;;19.83;27.58
79129;BME280;68529;43.286;23.360;2024-02-15T12:36:36;99769.75;;;19.71;27.62
79129;BME280;68529;43.286;23.360;2024-02-15T12:39:04;99767.88;;;19.59;26.36
79129;BME280;68529;43.286;23.360;2024-02-15T12:41:50;99765.78;;;19.50;26.72
79129;BME280;68529;43.286;23.360;2024-02-15T12:44:17;99766.16;;;19.44;27.99
79129;BME280;68529;43.286;23.360;2024-02-15T12:46:46;99758.53;;;19.66;27.87
79129;BME280;68529;43.286;23.360;2024-02-15T12:49:28;99762.84;;;19.41;28.40
79129;BME280;68529;43.286;23.360;2024-02-15T12:52:58;99760.97;;;19.13;28.52
79129;BME280;68529;43.286;23.360;2024-02-15T12:57:48;99755.28;;;19.19;27.56
79129;BME280;68529;43.286;23.360;2024-02-15T13:00:24;99757.19;;;19.17;28.17
79129;BME280;68529;43.286;23.360;2024-02-15T13:03:03;99758.31;;;19.27;27.32
79129;BME280;68529;43.286;23.360;2024-02-15T13:05:29;99753.47;;;19.05;27.47
79129;BME280;68529;43.286;23.360;2024-02-15T13:07:55;99751.94;;;19.01;28.45
79129;BME280;68529;43.286;23.360;2024-02-15T13:10:21;99752.72;;;18.74;28.31
79129;BME280;68529;43.286;23.360;2024-02-15T13:12:48;99744.34;;;18.20;27.60
79129;BME280;68529;43.286;23.360;2024-02-15T13:15:14;99743.81;;;18.29;29.00
79129;BME280;68529;43.286;23.360;2024-02-15T13:17:44;99748.31;;;17.82;27.44
79129;BME280;68529;43.286;23.360;2024-02-15T13:20:11;99743.59;;;18.02;29.03